createdAt,value
2022-11-05T00:00:04.526Z,100582.94
2022-11-05T00:02:50.586Z,100586.50
2022-11-05T00:05:36.564Z,100573.41
2022-11-05T00:08:23.385Z,100590.34
2022-11-05T00:10:52.836Z,100593.81
2022-11-05T00:13:38.373Z,100593.78
2022-11-05T00:16:35.215Z,100593.75
2022-11-05T00:19:10.004Z,100601.78
2022-11-05T00:21:57.351Z,100598.16
2022-11-05T00:24:43.436Z,100593.63
2022-11-05T00:27:12.788Z,100598.16
2022-11-05T00:29:40.791Z,100601.00
2022-11-05T00:32:08.824Z,100608.28
2022-11-05T00:34:36.832Z,100613.53
2022-11-05T00:37:04.868Z,100613.63
2022-11-05T00:39:32.846Z,100620.84
2022-11-05T00:42:18.155Z,100621.84
2022-11-05T00:45:01.884Z,100616.66
2022-11-05T00:47:47.708Z,100619.97
2022-11-05T00:50:15.512Z,100625.94
2022-11-05T00:52:59.464Z,100620.84
2022-11-05T00:55:34.384Z,100619.16
2022-11-05T00:58:03.783Z,100625.25
2022-11-05T01:00:34.834Z,100623.38
2022-11-05T01:03:04.811Z,100629.66
2022-11-05T01:05:33.869Z,100629.84
2022-11-05T01:08:02.651Z,100639.56
2022-11-05T01:10:31.130Z,100642.41
2022-11-05T01:12:59.169Z,100650.34
2022-11-05T01:15:27.177Z,100641.31
2022-11-05T01:17:56.444Z,100647.41
2022-11-05T01:20:24.532Z,100651.91
2022-11-05T01:22:52.430Z,100653.78
2022-11-05T01:25:20.707Z,100654.78
2022-11-05T01:27:48.674Z,100661.19
2022-11-05T01:30:16.898Z,100662.34
2022-11-05T01:32:45.119Z,100661.56
2022-11-05T01:35:16.343Z,100661.13
2022-11-05T01:37:45.322Z,100669.88
2022-11-05T01:40:14.977Z,100657.53
2022-11-05T01:42:43.324Z,100653.13
2022-11-05T01:45:15.726Z,100657.34
2022-11-05T01:47:51.734Z,100662.72
2022-11-05T01:50:31.299Z,100657.19
2022-11-05T01:53:06.147Z,100656.59
2022-11-05T01:55:37.871Z,100660.56
2022-11-05T01:58:08.855Z,100663.19
2022-11-05T02:00:37.525Z,100661.47
2022-11-05T02:03:05.846Z,100659.88
2022-11-05T02:05:36.102Z,100670.28
2022-11-05T02:08:04.457Z,100665.06
2022-11-05T02:10:33.774Z,100670.59
2022-11-05T02:13:03.612Z,100677.59
2022-11-05T02:15:41.946Z,100669.56
2022-11-05T02:18:20.488Z,100670.34
2022-11-05T02:21:03.799Z,100670.28
2022-11-05T02:23:57.625Z,100667.59
2022-11-05T02:27:03.164Z,100672.16
2022-11-05T02:30:06.220Z,100672.00
2022-11-05T02:32:44.987Z,100656.53
2022-11-05T02:35:22.811Z,100671.06
2022-11-05T02:37:54.409Z,100677.09
2022-11-05T02:40:28.534Z,100664.72
2022-11-05T02:43:04.642Z,100662.72
2022-11-05T02:45:42.418Z,100657.84
2022-11-05T02:48:21.827Z,100659.56
2022-11-05T02:50:56.816Z,100668.69
2022-11-05T02:53:35.665Z,100666.03
2022-11-05T02:56:09.925Z,100667.25
2022-11-05T02:58:37.840Z,100664.28
2022-11-05T03:01:07.016Z,100667.94
2022-11-05T03:03:40.248Z,100650.75
2022-11-05T03:06:32.929Z,100675.06
2022-11-05T03:09:22.959Z,100679.44
2022-11-05T03:12:01.732Z,100682.06
2022-11-05T03:14:38.911Z,100676.66
2022-11-05T03:17:14.118Z,100686.28
2022-11-05T03:19:50.597Z,100681.88
2022-11-05T03:22:26.146Z,100690.53
2022-11-05T03:24:59.348Z,100693.22
2022-11-05T03:27:31.698Z,100693.22
2022-11-05T03:30:04.357Z,100697.41
2022-11-05T03:32:36.833Z,100701.03
2022-11-05T03:35:13.465Z,100704.63
2022-11-05T03:37:44.145Z,100701.13
2022-11-05T03:40:15.485Z,100699.16
2022-11-05T03:42:47.299Z,100700.00
2022-11-05T03:45:19.001Z,100705.25
2022-11-05T03:47:48.916Z,100704.56
2022-11-05T03:50:23.350Z,100697.66
2022-11-05T03:52:54.415Z,100714.53
2022-11-05T03:55:27.078Z,100710.25
2022-11-05T03:57:56.890Z,100715.44
2022-11-05T04:00:25.182Z,100714.66
2022-11-05T04:02:53.217Z,100714.75
2022-11-05T04:05:22.829Z,100725.31
2022-11-05T04:08:13.856Z,100734.84
2022-11-05T04:10:59.960Z,100715.88
2022-11-05T04:13:28.276Z,100736.00
2022-11-05T04:16:15.163Z,100743.09
2022-11-05T04:18:43.561Z,100737.56
2022-11-05T04:21:30.375Z,100750.00
2022-11-05T04:24:10.683Z,100748.56
2022-11-05T04:26:39.758Z,100750.19
2022-11-05T04:29:27.627Z,100755.81
2022-11-05T04:31:55.920Z,100747.16
2022-11-05T04:34:23.894Z,100754.47
2022-11-05T04:36:53.879Z,100760.13
2022-11-05T04:39:22.515Z,100760.16
2022-11-05T04:41:50.532Z,100756.19
2022-11-05T04:44:18.486Z,100766.00
2022-11-05T04:46:46.471Z,100766.16
2022-11-05T04:49:14.376Z,100772.31
2022-11-05T04:51:42.346Z,100766.03
2022-11-05T04:54:11.677Z,100769.56
2022-11-05T04:56:39.572Z,100769.72
2022-11-05T04:59:07.509Z,100773.25
2022-11-05T05:01:35.599Z,100766.94
2022-11-05T05:04:03.716Z,100740.13
2022-11-05T05:06:31.632Z,100775.91
2022-11-05T05:08:59.631Z,100774.25
2022-11-05T05:11:28.954Z,100777.53
2022-11-05T05:13:56.886Z,100781.00
2022-11-05T05:16:26.581Z,100771.88
2022-11-05T05:18:55.610Z,100787.00
2022-11-05T05:21:42.167Z,100775.56
2022-11-05T05:24:13.080Z,100783.41
2022-11-05T05:26:44.138Z,100791.25
2022-11-05T05:29:12.798Z,100791.88
2022-11-05T05:31:41.190Z,100804.28
2022-11-05T05:34:12.522Z,100791.97
2022-11-05T05:36:40.561Z,100797.28
2022-11-05T05:39:10.739Z,100795.44
2022-11-05T05:41:38.883Z,100806.84
2022-11-05T05:44:08.737Z,100803.09
2022-11-05T05:46:36.770Z,100812.13
2022-11-05T05:49:11.059Z,100808.88
2022-11-05T05:51:40.280Z,100818.06
2022-11-05T05:54:13.564Z,100808.81
2022-11-05T05:56:43.898Z,100815.00
2022-11-05T05:59:13.466Z,100811.28
2022-11-05T06:01:41.676Z,100802.47
2022-11-05T06:04:10.548Z,100814.75
2022-11-05T06:06:38.674Z,100812.09
2022-11-05T06:09:06.689Z,100817.47
2022-11-05T06:11:34.755Z,100816.56
2022-11-05T06:14:02.696Z,100822.69
2022-11-05T06:16:35.435Z,100820.25
2022-11-05T06:19:03.618Z,100831.00
2022-11-05T06:21:31.686Z,100823.22
2022-11-05T06:24:02.130Z,100829.50
2022-11-05T06:26:30.224Z,100833.06
2022-11-05T06:28:58.276Z,100832.28
2022-11-05T06:31:26.224Z,100828.94
2022-11-05T06:33:55.521Z,100836.88
2022-11-05T06:36:23.526Z,100836.97
2022-11-05T06:38:51.463Z,100834.31
2022-11-05T06:41:19.403Z,100844.09
2022-11-05T06:43:47.314Z,100845.97
2022-11-05T06:46:15.202Z,100854.78
2022-11-05T06:48:43.171Z,100852.88
2022-11-05T06:51:12.424Z,100861.41
2022-11-05T06:53:40.392Z,100864.00
2022-11-05T06:56:09.137Z,100861.22
2022-11-05T06:58:37.652Z,100877.13
2022-11-05T07:01:08.013Z,100883.38
2022-11-05T07:03:36.593Z,100883.28
2022-11-05T07:06:07.241Z,100885.00
2022-11-05T07:08:37.827Z,100881.16
2022-11-05T07:11:06.487Z,100880.03
2022-11-05T07:13:34.438Z,100876.34
2022-11-05T07:16:02.429Z,100889.44
2022-11-05T07:18:30.440Z,100889.31
2022-11-05T07:21:00.447Z,100887.44
2022-11-05T07:23:28.459Z,100891.66
2022-11-05T07:25:57.797Z,100895.78
2022-11-05T07:28:25.775Z,100902.66
2022-11-05T07:30:54.024Z,100898.78
2022-11-05T07:33:21.976Z,100904.75
2022-11-05T07:35:49.984Z,100907.16
2022-11-05T07:38:19.035Z,100913.97
2022-11-05T07:40:47.554Z,100913.69
2022-11-05T07:43:17.131Z,100918.69
2022-11-05T07:45:46.802Z,100910.09
2022-11-05T07:48:14.860Z,100902.75
2022-11-05T07:50:42.791Z,100904.91
2022-11-05T07:53:12.830Z,100916.19
2022-11-05T07:55:42.171Z,100888.81
2022-11-05T07:58:10.688Z,100913.25
2022-11-05T08:00:40.169Z,100916.97
2022-11-05T08:03:11.824Z,100908.69
2022-11-05T08:05:44.440Z,100893.31
2022-11-05T08:08:15.556Z,100918.13
2022-11-05T08:10:44.101Z,100898.97
2022-11-05T08:13:13.166Z,100928.50
2022-11-05T08:15:43.329Z,100931.81
2022-11-05T08:18:13.846Z,100929.41
2022-11-05T08:20:43.526Z,100924.41
2022-11-05T08:23:12.580Z,100937.59
2022-11-05T08:25:43.248Z,100937.63
2022-11-05T08:28:13.102Z,100932.28
2022-11-05T08:30:42.665Z,100938.50
2022-11-05T08:33:13.503Z,100943.22
2022-11-05T08:35:41.816Z,100953.22
2022-11-05T08:38:13.614Z,100947.25
2022-11-05T08:40:42.563Z,100958.31
2022-11-05T08:43:13.062Z,100965.72
2022-11-05T08:45:42.788Z,100961.91
2022-11-05T08:48:12.716Z,100976.66
2022-11-05T08:50:40.756Z,100965.88
2022-11-05T08:53:10.749Z,100968.00
2022-11-05T08:55:39.438Z,100967.19
2022-11-05T08:58:10.634Z,100976.94
2022-11-05T09:00:39.276Z,100971.91
2022-11-05T09:03:10.510Z,100970.66
2022-11-05T09:05:40.778Z,100981.44
2022-11-05T09:08:10.279Z,100971.81
2022-11-05T09:10:39.227Z,100967.31
2022-11-05T09:13:11.733Z,100971.84
2022-11-05T09:15:43.170Z,100960.22
2022-11-05T09:18:14.931Z,100975.56
2022-11-05T09:20:43.392Z,100971.56
2022-11-05T09:23:14.087Z,100970.16
2022-11-05T09:25:42.268Z,100963.25
2022-11-05T09:28:16.437Z,100987.88
2022-11-05T09:30:46.839Z,100984.66
2022-11-05T09:33:17.577Z,100985.50
2022-11-05T09:35:46.446Z,100980.84
2022-11-05T09:38:14.787Z,101002.88
2022-11-05T09:40:48.098Z,100998.59
2022-11-05T09:43:18.620Z,101000.41
2022-11-05T09:45:50.424Z,101010.78
2022-11-05T09:48:25.357Z,101007.13
2022-11-05T09:50:54.791Z,100995.97
2022-11-05T09:53:24.503Z,100992.03
2022-11-05T09:55:55.405Z,100995.38
2022-11-05T09:58:37.270Z,101000.31
2022-11-05T10:01:08.593Z,101000.66
2022-11-05T10:03:45.625Z,101001.56
2022-11-05T10:06:19.734Z,101005.31
2022-11-05T10:08:52.643Z,100998.94
2022-11-05T10:11:25.129Z,101009.59
2022-11-05T10:13:57.976Z,101011.97
2022-11-05T10:16:28.541Z,101014.53
2022-11-05T10:19:02.106Z,101021.13
2022-11-05T10:21:59.713Z,101015.91
2022-11-05T10:24:21.452Z,101019.41
2022-11-05T10:26:51.720Z,101012.22
2022-11-05T10:29:27.296Z,101011.84
2022-11-05T10:31:57.078Z,101012.22
2022-11-05T10:34:32.593Z,101014.16
2022-11-05T10:37:00.789Z,101005.16
2022-11-05T10:39:31.108Z,101021.03
2022-11-05T10:42:11.456Z,101012.06
2022-11-05T10:44:47.676Z,101006.72
2022-11-05T10:47:35.119Z,101013.41
2022-11-05T10:50:10.773Z,101009.63
2022-11-05T10:52:41.110Z,101015.59
2022-11-05T10:55:21.950Z,101024.78
2022-11-05T10:57:50.479Z,101010.19
2022-11-05T11:00:36.504Z,101017.09
2022-11-05T11:03:06.754Z,101018.94
2022-11-05T11:05:39.083Z,101019.06
2022-11-05T11:08:23.393Z,101023.13
2022-11-05T11:10:53.653Z,101017.03
2022-11-05T11:13:23.543Z,101022.56
2022-11-05T11:15:51.948Z,101018.69
2022-11-05T11:18:32.469Z,101025.81
2022-11-05T11:21:14.731Z,101038.03
2022-11-05T11:23:44.678Z,101024.41
2022-11-05T11:26:14.239Z,101030.09
2022-11-05T11:28:47.157Z,101023.09
2022-11-05T11:31:17.553Z,101023.84
2022-11-05T11:33:48.768Z,101033.13
2022-11-05T11:36:20.704Z,101033.91
2022-11-05T11:38:49.183Z,101032.38
2022-11-05T11:41:26.318Z,101040.44
2022-11-05T11:43:58.363Z,101027.84
2022-11-05T11:46:26.926Z,101010.06
2022-11-05T11:48:54.906Z,101031.31
2022-11-05T11:51:32.475Z,101026.06
2022-11-05T11:54:01.602Z,101024.88
2022-11-05T11:56:30.359Z,101023.06
2022-11-05T11:59:03.347Z,101022.97
2022-11-05T12:02:01.145Z,101028.38
2022-11-05T12:05:07.999Z,101026.56
2022-11-05T12:07:49.600Z,101025.19
2022-11-05T12:10:27.975Z,101026.06
2022-11-05T12:13:23.516Z,101014.41
2022-11-05T12:15:55.160Z,101010.03
2022-11-05T12:18:34.655Z,101015.44
2022-11-05T12:21:34.646Z,101005.47
2022-11-05T12:24:21.887Z,101012.72
2022-11-05T12:27:04.259Z,101008.22
2022-11-05T12:29:47.915Z,101002.44
2022-11-05T12:32:38.413Z,100979.66
2022-11-05T12:35:18.119Z,101008.19
2022-11-05T12:37:56.548Z,101012.59
2022-11-05T12:40:41.602Z,100990.88
2022-11-05T12:43:19.366Z,101005.84
2022-11-05T12:45:53.984Z,100993.94
2022-11-05T12:48:39.090Z,100991.72
2022-11-05T12:51:18.539Z,101000.06
2022-11-05T12:53:57.506Z,100997.44
2022-11-05T12:56:34.290Z,100994.38
2022-11-05T12:59:07.354Z,101000.84
2022-11-05T13:01:39.228Z,101003.66
2022-11-05T13:04:15.660Z,101017.38
2022-11-05T13:06:49.557Z,100997.19
2022-11-05T13:09:20.938Z,101005.22
2022-11-05T13:11:54.547Z,101011.13
2022-11-05T13:14:28.108Z,100999.09
2022-11-05T13:17:00.098Z,100998.72
2022-11-05T13:19:31.964Z,101004.97
2022-11-05T13:22:09.466Z,100999.41
2022-11-05T13:24:41.137Z,100999.91
2022-11-05T13:27:42.537Z,100968.91
2022-11-05T13:30:16.187Z,100997.34
2022-11-05T13:32:48.231Z,101003.31
2022-11-05T13:35:18.699Z,100995.25
2022-11-05T13:38:08.296Z,100996.59
2022-11-05T13:40:51.589Z,100994.50
2022-11-05T13:43:34.446Z,101001.38
2022-11-05T13:46:17.571Z,100997.78
2022-11-05T13:49:07.926Z,100996.34
2022-11-05T13:51:49.440Z,101000.75
2022-11-05T13:54:53.852Z,101002.81
2022-11-05T13:57:46.647Z,100990.75
2022-11-05T14:00:20.380Z,100997.16
2022-11-05T14:02:52.725Z,101000.22
2022-11-05T14:05:31.390Z,100997.03
2022-11-05T14:08:01.731Z,100988.38
2022-11-05T14:10:36.625Z,100994.75
2022-11-05T14:13:18.196Z,100995.00
2022-11-05T14:16:03.870Z,100996.03
2022-11-05T14:18:44.444Z,100989.09
2022-11-05T14:21:47.605Z,100998.94
2022-11-05T14:24:40.367Z,100993.03
2022-11-05T14:27:49.587Z,100994.91
2022-11-05T14:30:41.229Z,101000.22
2022-11-05T14:33:34.321Z,100977.63
2022-11-05T14:36:29.248Z,101002.09
2022-11-05T14:39:04.534Z,101004.97
2022-11-05T14:41:32.733Z,101009.78
2022-11-05T14:44:05.965Z,100983.56
2022-11-05T14:46:42.461Z,101008.88
2022-11-05T14:49:19.388Z,101005.81
2022-11-05T14:51:51.090Z,101013.88
2022-11-05T14:54:22.704Z,101012.56
2022-11-05T14:56:56.293Z,101006.63
2022-11-05T14:59:56.899Z,101012.25
2022-11-05T15:02:28.408Z,101012.56
2022-11-05T15:05:29.492Z,101017.41
2022-11-05T15:07:59.956Z,101016.75
2022-11-05T15:10:32.491Z,101023.69
2022-11-05T15:13:05.179Z,101017.84
2022-11-05T15:15:43.503Z,101018.38
2022-11-05T15:18:18.198Z,101009.28
2022-11-05T15:20:48.403Z,101013.34
2022-11-05T15:23:21.596Z,100993.41
2022-11-05T15:25:53.711Z,101007.09
2022-11-05T15:28:31.569Z,101000.34
2022-11-05T15:31:01.935Z,101012.06
2022-11-05T15:33:31.026Z,101012.00
2022-11-05T15:36:10.758Z,101022.50
2022-11-05T15:38:56.668Z,101021.88
2022-11-05T15:41:34.500Z,101024.06
2022-11-05T15:44:02.852Z,101029.34
2022-11-05T15:46:31.288Z,101028.34
2022-11-05T15:49:03.538Z,101024.47
2022-11-05T15:51:31.667Z,101017.19
2022-11-05T15:56:53.975Z,101014.16
2022-11-05T15:59:23.657Z,101013.19
2022-11-05T16:01:56.354Z,101010.06
2022-11-05T16:04:28.356Z,101016.97
2022-11-05T16:07:02.402Z,101020.81
2022-11-05T16:09:33.936Z,101019.94
2022-11-05T16:12:24.133Z,101015.75
2022-11-05T16:14:59.854Z,101026.31
2022-11-05T16:17:31.108Z,101013.00
2022-11-05T16:19:59.456Z,101012.06
2022-11-05T16:22:44.645Z,100998.44
2022-11-05T16:25:36.078Z,101005.00
2022-11-05T16:28:05.181Z,101011.31
2022-11-05T16:30:33.292Z,101011.22
2022-11-05T16:33:06.711Z,101004.94
2022-11-05T16:35:34.492Z,101007.97
2022-11-05T16:38:03.450Z,101006.91
2022-11-05T16:40:32.833Z,101011.69
2022-11-05T16:43:16.241Z,101010.56
2022-11-05T16:45:44.346Z,101015.91
2022-11-05T16:48:13.389Z,101017.00
2022-11-05T16:50:42.371Z,101014.47
2022-11-05T16:53:10.498Z,101022.34
2022-11-05T16:55:41.416Z,100994.47
2022-11-05T16:58:19.366Z,101023.31
2022-11-05T17:00:47.839Z,101006.03
2022-11-05T17:03:15.758Z,101022.44
2022-11-05T17:05:43.862Z,101025.09
2022-11-05T17:08:12.123Z,101020.84
2022-11-05T17:10:41.741Z,101035.06
2022-11-05T17:13:11.230Z,101036.47
2022-11-05T17:15:39.212Z,101035.84
2022-11-05T17:18:07.245Z,101041.75
2022-11-05T17:20:40.681Z,101048.38
2022-11-05T17:23:10.925Z,101047.31
2022-11-05T17:25:41.292Z,101037.81
2022-11-05T17:28:10.774Z,101049.16
2022-11-05T17:30:41.642Z,101050.25
2022-11-05T17:33:11.831Z,101046.81
2022-11-05T17:35:40.619Z,101041.16
2022-11-05T17:38:08.746Z,101049.97
2022-11-05T17:40:37.813Z,101049.34
2022-11-05T17:43:07.302Z,101048.22
2022-11-05T17:45:35.787Z,101053.56
2022-11-05T17:48:05.017Z,101056.22
2022-11-05T17:50:33.035Z,101047.50
2022-11-05T17:53:00.959Z,101052.88
2022-11-05T17:55:28.977Z,101056.44
2022-11-05T17:57:56.949Z,101056.91
2022-11-05T18:00:26.657Z,101056.00
2022-11-05T18:02:55.336Z,101060.50
2022-11-05T18:05:24.096Z,101063.16
2022-11-05T18:07:52.330Z,101059.13
2022-11-05T18:10:20.518Z,101020.22
2022-11-05T18:12:48.522Z,101063.84
2022-11-05T18:15:17.091Z,101068.34
2022-11-05T18:17:47.660Z,101043.03
2022-11-05T18:20:19.194Z,101065.06
2022-11-05T18:22:49.936Z,101067.69
2022-11-05T18:25:18.836Z,101069.31
2022-11-05T18:27:46.779Z,101061.50
2022-11-05T18:30:15.886Z,101058.94
2022-11-05T18:32:44.245Z,101047.31
2022-11-05T18:35:14.396Z,101052.94
2022-11-05T18:37:42.523Z,101046.97
2022-11-05T18:40:11.332Z,101032.50
2022-11-05T18:42:39.504Z,101035.50
2022-11-05T18:45:08.581Z,101040.53
2022-11-05T18:47:36.750Z,101031.09
2022-11-05T18:50:06.428Z,101024.00
2022-11-05T18:52:35.906Z,101026.59
2022-11-05T18:55:03.941Z,101030.72
2022-11-05T18:57:34.051Z,101032.97
2022-11-05T19:00:02.054Z,101020.81
2022-11-05T19:02:30.324Z,101026.81
2022-11-05T19:07:47.850Z,101021.13
2022-11-05T19:10:15.821Z,101039.25
2022-11-05T19:12:44.110Z,101041.88
2022-11-05T19:15:12.430Z,101042.88
2022-11-05T19:17:40.536Z,101034.59
2022-11-05T19:20:10.126Z,101030.34
2022-11-05T19:22:38.238Z,101033.88
2022-11-05T19:25:09.051Z,101036.38
2022-11-05T19:27:37.603Z,101033.97
2022-11-05T19:30:06.251Z,101036.66
2022-11-05T19:32:34.324Z,101045.34
2022-11-05T19:35:02.292Z,101035.50
2022-11-05T19:37:30.522Z,101030.41
2022-11-05T19:39:58.583Z,101022.66
2022-11-05T19:42:28.123Z,101019.59
2022-11-05T19:44:56.098Z,101015.28
2022-11-05T19:47:24.182Z,101021.69
2022-11-05T19:49:52.142Z,101018.47
2022-11-05T19:52:20.095Z,101022.00
2022-11-05T19:54:48.134Z,101024.50
2022-11-05T19:57:16.193Z,101029.03
2022-11-05T19:59:45.519Z,101025.72
2022-11-05T20:02:16.466Z,101023.41
2022-11-05T20:04:45.180Z,101016.56
2022-11-05T20:07:13.162Z,101027.22
2022-11-05T20:09:41.390Z,101009.84
2022-11-05T20:12:09.594Z,101020.66
2022-11-05T20:14:37.854Z,101026.81
2022-11-05T20:17:07.282Z,101028.94
2022-11-05T20:19:35.416Z,101029.78
2022-11-05T20:22:03.448Z,101027.94
2022-11-05T20:24:31.599Z,101029.50
2022-11-05T20:26:59.587Z,101033.97
2022-11-05T20:29:33.918Z,101032.44
2022-11-05T20:32:03.016Z,101033.41
2022-11-05T20:34:34.020Z,101032.22
2022-11-05T20:37:02.293Z,101021.91
2022-11-05T20:39:30.344Z,101028.03
2022-11-05T20:42:00.433Z,101020.94
2022-11-05T20:44:31.417Z,101034.84
2022-11-05T20:46:59.470Z,101028.00
2022-11-05T20:49:27.632Z,101028.94
2022-11-05T20:51:57.384Z,101013.16
2022-11-05T20:54:25.600Z,101019.16
2022-11-05T20:56:53.606Z,101029.81
2022-11-05T20:59:21.629Z,101030.22
2022-11-05T21:01:51.859Z,101023.81
2022-11-05T21:04:19.987Z,101033.41
2022-11-05T21:06:47.938Z,101033.41
2022-11-05T21:09:18.698Z,101017.63
2022-11-05T21:12:04.048Z,101031.56
2022-11-05T21:14:32.242Z,101032.63
2022-11-05T21:17:00.182Z,101038.78
2022-11-05T21:19:29.391Z,101046.81
2022-11-05T21:21:57.476Z,101043.06
2022-11-05T21:24:26.818Z,101037.94
2022-11-05T21:26:54.876Z,101033.75
2022-11-05T21:29:22.868Z,101032.84
2022-11-05T21:31:50.994Z,101034.38
2022-11-05T21:34:19.818Z,101045.09
2022-11-05T21:36:48.115Z,101037.03
2022-11-05T21:39:16.114Z,101039.59
2022-11-05T21:41:45.516Z,101039.50
2022-11-05T21:44:13.548Z,101031.69
2022-11-05T21:46:41.523Z,101031.63
2022-11-05T21:49:09.461Z,101036.13
2022-11-05T21:51:55.031Z,101028.56
2022-11-05T21:54:40.356Z,101031.84
2022-11-05T21:57:33.257Z,101032.22
2022-11-05T22:00:03.686Z,101033.91
2022-11-05T22:02:32.914Z,101021.81
2022-11-05T22:05:02.163Z,101024.03
2022-11-05T22:07:33.224Z,101017.19
2022-11-05T22:10:01.650Z,101016.28
2022-11-05T22:12:32.216Z,101008.53
2022-11-05T22:15:00.322Z,101014.94
2022-11-05T22:17:28.774Z,101021.06
2022-11-05T22:19:57.231Z,101016.44
2022-11-05T22:22:25.350Z,101007.59
2022-11-05T22:24:53.407Z,101004.44
2022-11-05T22:27:22.523Z,101012.53
2022-11-05T22:29:51.890Z,101007.59
2022-11-05T22:32:20.020Z,100994.69
2022-11-05T22:34:48.967Z,100994.84
2022-11-05T22:37:17.317Z,101000.69
2022-11-05T22:39:45.314Z,101000.91
2022-11-05T22:42:13.337Z,101012.34
2022-11-05T22:44:41.436Z,101006.50
2022-11-05T22:47:10.800Z,101008.03
2022-11-05T22:49:39.061Z,101007.38
2022-11-05T22:52:07.109Z,100999.78
2022-11-05T22:54:39.009Z,101004.81
2022-11-05T22:57:08.546Z,100988.06
2022-11-05T22:59:36.568Z,100981.22
2022-11-05T23:02:09.602Z,100982.88
2022-11-05T23:04:40.079Z,100983.69
2022-11-05T23:07:27.915Z,100952.22
2022-11-05T23:10:14.116Z,100967.59
2022-11-05T23:12:43.562Z,100978.22
2022-11-05T23:15:32.365Z,100972.81
2022-11-05T23:18:17.820Z,100963.81
2022-11-05T23:21:04.553Z,100960.91
2022-11-05T23:23:49.935Z,100954.22
2022-11-05T23:26:35.310Z,100977.72
2022-11-05T23:29:03.361Z,100967.13
2022-11-05T23:31:48.932Z,100965.13
2022-11-05T23:34:16.940Z,100967.03
2022-11-05T23:37:03.626Z,100958.84
2022-11-05T23:39:31.648Z,100965.03
2022-11-05T23:42:17.397Z,100952.47
2022-11-05T23:45:02.921Z,100956.94
2022-11-05T23:47:48.583Z,100953.25
2022-11-05T23:50:16.685Z,100941.63
2022-11-05T23:52:46.104Z,100947.25
2022-11-05T23:55:14.113Z,100945.63
2022-11-05T23:57:42.137Z,100941.53
